To NAV CANADA Home Page Login to a new session Search on AWWS site Feedback and Comments Disclaimer Vers la page française équivalente Tips FAQ What's new on the site To the Forecasts and Observations / NOTAM section To "File a Flight Plan" website Publications and other links Update of the User's profile FIC Telephone Numbers My Weather Data Folder Route Weather Data Regional Weather Data Local Weather Data To the Forecasts and Observations / NOTAM section
Request Generated 05/22/2015 at 19:02:34 UTC . Weather information available at that time is displayed.

METAR/TAF

YARMOUTH/NS    

METAR CYQI 221900Z 10007KT 050V130 12SM OVC010 09/08 A2979 RMK SF8
SLP090=
SPECI CYQI 221850Z 06006KT 10SM OVC008 09/08 A2979 RMK SF8 SLP090=
SPECI CYQI 221831Z 03007KT 8SM -SHRA OVC006 09/08 A2979 RMK SF8
PRESFR SLP088=
METAR CYQI 221800Z 05005KT 10SM OVC006 08/08 A2981 RMK SF8 SLP095=
SPECI CYQI 221742Z 06006KT 8SM BKN005 OVC030 08/08 A2981 RMK SF5SC3
PRESFR SLP095=
SPECI CYQI 221717Z 07005KT 5SM -RA BR BKN005 OVC030 08/08 A2983 RMK
SF6NS2 SLP101=
METAR CYQI 221700Z 07006KT 8SM -RA OVC006 08/07 A2982 RMK SF8 SLP100=

TAF CYQI 221738Z 2218/2306 07005KT 4SM -RA BR OVC005 TEMPO 2218/2220
P6SM -RA BKN006 OVC030
FM222000 10007KT P6SM BKN010 TEMPO 2220/2222 SCT010
FM222200 VRB03KT P6SM BKN006 PROB30 2222/2224 OVC004
FM230200 28008KT 4SM -SHRA BR BKN003 OVC080
RMK NXT FCST BY 230000Z=
Your time UTC time
Weather data provided by Environment Canada and NAV CANADA